Weather reports worldwide

Advertisment
Ross-on-Wye, United Kingdom (99207): temperature & dewpoint: 11.01.2021 21:00:00 - 17.01.2021 21:00:00 (GMT)Ross-on-Wye, United Kingdom (99207): temperature -20cm: 11.01.2021 21:00:00 - 17.01.2021 21:00:00 (GMT)Ross-on-Wye, United Kingdom (99207): wind speed & gusts: 11.01.2021 21:00:00 - 17.01.2021 21:00:00 (GMT)Ross-on-Wye, United Kingdom (99207): wind direction: 11.01.2021 21:00:00 - 17.01.2021 21:00:00 (GMT)Ross-on-Wye, United Kingdom (99207): sunshine duration: 11.01.2021 21:00:00 - 17.01.2021 21:00:00 (GMT)Ross-on-Wye, United Kingdom (99207): precipitation: 11.01.2021 21:00:00 - 17.01.2021 21:00:00 (GMT)
Date & Time tt [°C] td [°C] tt -20cm [°C] ff [km/h] ff [kn] fx [km/h] fx [kn] dd sd [min] rr [mm]
17.01.2021 21:00:00 5,6 2,4 - 9 5 - - WSW 0 0,0
17.01.2021 20:00:00 5,7 2,6 - 9 5 - - WSW 0 0,0
17.01.2021 19:00:00 6,1 2,6 - 11 6 - - WSW 0 0,0
17.01.2021 18:00:00 6,1 2,5 - 8 4 - - WSW 0 0,0
17.01.2021 17:00:00 6,3 2,5 - 11 6 - - W 0 0,0
17.01.2021 16:00:00 6,7 2,7 - 9 5 - - W 0 0,0
17.01.2021 15:00:00 6,9 2,9 - 8 4 - - WSW 0 0,0
17.01.2021 14:00:00 7,0 2,5 - 8 4 - - WSW 0 0,0
17.01.2021 13:00:00 6,9 2,6 - 5 3 - - W 0 0,0
17.01.2021 12:00:00 6,7 2,4 - 9 5 - - W 0 0,0
17.01.2021 11:00:00 6,4 1,9 - 9 5 - - WNW 18 0,0
17.01.2021 10:00:00 5,7 1,5 - 11 6 - - W 60 0,0
17.01.2021 09:00:00 4,7 1,1 6,2 5 3 - - WSW 0 0,0
17.01.2021 08:00:00 4,3 0,9 - 9 5 - - WSW 0 0,0
17.01.2021 07:00:00 4,1 1,2 - 9 5 - - SW 0 0,0
17.01.2021 06:00:00 4,6 1,2 - 5 3 - - WSW 0 0,0
17.01.2021 05:00:00 4,7 1,7 - 13 7 - - W 0 0,0
17.01.2021 04:00:00 5,4 2,0 - 5 3 - - NW 0 0,0
17.01.2021 03:00:00 5,8 2,7 - 9 5 - - WSW 0 0,0
17.01.2021 02:00:00 5,8 3,1 - 11 6 - - W 0 0,2
17.01.2021 01:00:00 6,6 2,2 - 13 7 - - W 0 0,0
17.01.2021 00:00:00 6,6 1,7 - 9 5 - - SW - 0,0
16.01.2021 23:00:00 6,8 1,5 - 13 7 - - W 0 0,0
16.01.2021 22:00:00 5,8 1,3 - 9 5 - - WSW 0 0,0
16.01.2021 21:00:00 6,4 1,6 - 5 3 - - WSW 0 0,0
16.01.2021 20:00:00 7,3 2,4 - 11 6 - - W 0 0,0
16.01.2021 19:00:00 7,7 3,7 - 13 7 - - W 0 0,0
16.01.2021 18:00:00 7,9 4,0 - 11 6 - - W 0 0,0
16.01.2021 17:00:00 8,0 4,5 - 13 7 - - W 0 0,0
16.01.2021 16:00:00 8,3 4,6 - 13 7 - - W 0 0,0
16.01.2021 15:00:00 8,9 4,8 - 9 5 - - WNW 0 0,0
16.01.2021 14:00:00 8,8 4,8 - 16 9 - - W 0 0,0
16.01.2021 13:00:00 9,0 4,9 - 15 8 - - W 0 0,0
16.01.2021 12:00:00 8,7 5,2 - 11 6 - - W 30 0,0
16.01.2021 11:00:00 8,9 5,6 - 13 7 - - W 48 0,0
16.01.2021 10:00:00 7,9 7,4 - 9 5 - - WSW 0 0,0
16.01.2021 09:00:00 6,7 6,3 6,0 9 5 - - WSW 0 0,4
16.01.2021 08:00:00 6,2 5,6 - 15 8 46 25 SSW 0 0,0
16.01.2021 07:00:00 5,5 4,6 - 18 10 46 25 S 0 0,0
16.01.2021 06:00:00 4,4 3,5 - 18 10 - - S 0 0,0
16.01.2021 05:00:00 3,8 3,0 - 18 10 48 26 S 0 0,4
16.01.2021 04:00:00 4,1 3,1 - 21 11 48 26 S 0 1,4
16.01.2021 03:00:00 3,9 3,2 - 13 7 - - S 0 2,2
16.01.2021 02:00:00 3,6 2,2 - 13 7 - - S 0 1,4
16.01.2021 01:00:00 4,1 1,4 - 11 6 - - S 0 0,0
16.01.2021 00:00:00 3,2 1,0 - 9 5 - - SSE - 0,0
15.01.2021 23:00:00 2,6 0,8 - 9 5 - - S 0 0,0
15.01.2021 22:00:00 2,3 0,2 - 11 6 - - S 0 0,0
15.01.2021 21:00:00 1,6 -0,1 - 8 4 - - SSW 0 0,0
15.01.2021 20:00:00 1,2 -0,1 - 5 3 - - SSW 0 0,0
15.01.2021 19:00:00 0,5 -0,4 - 5 3 - - S 0 0,0
15.01.2021 18:00:00 -0,1 -1,1 - 4 2 - - S 0 0,0
15.01.2021 17:00:00 0,6 -1,0 - 2 1 - - S 0 0,0
15.01.2021 16:00:00 1,4 -0,9 - 4 2 - - SE 24 0,0
15.01.2021 15:00:00 2,9 -0,4 - 4 2 - - S 18 0,0
15.01.2021 14:00:00 2,1 -0,5 - 4 2 - - SSW 0 0,0
15.01.2021 13:00:00 1,7 -0,6 - 2 1 - - W 0 0,0
15.01.2021 12:00:00 1,2 -0,8 - 4 2 - - SSE 0 0,0
15.01.2021 11:00:00 0,6 -0,8 - 4 2 - - SSE 0 0,0
15.01.2021 10:00:00 0,5 -0,5 - 5 3 - - ENE 0 0,0
15.01.2021 09:00:00 0,4 -0,8 6,7 5 3 - - ENE 0 0,0
15.01.2021 08:00:00 1,0 -0,5 - 4 2 - - E 0 0,0
15.01.2021 07:00:00 1,2 -0,5 - 5 3 - - NE 0 0,0
15.01.2021 06:00:00 1,5 -0,5 - 5 3 - - NNE 0 0,0
15.01.2021 05:00:00 1,6 -0,4 - 5 3 - - NE 0 0,0
15.01.2021 04:00:00 1,7 -0,1 - 8 4 - - NE 0 0,0
15.01.2021 03:00:00 1,9 0,5 - 5 3 - - NE 0 0,0
15.01.2021 02:00:00 2,6 0,9 - 8 4 - - NE 0 0,0
15.01.2021 01:00:00 2,6 0,7 - 4 2 - - NE 0 0,0
15.01.2021 00:00:00 2,8 0,8 - 8 4 - - NE - 0,0
14.01.2021 23:00:00 2,7 0,8 - 9 5 - - ENE 0 0,0
14.01.2021 22:00:00 2,8 0,6 - 13 7 - - NE 0 0,0
14.01.2021 21:00:00 2,9 0,8 - 13 7 - - NNE 0 0,0
14.01.2021 20:00:00 3,3 1,3 - 11 6 - - NNE 0 0,0
14.01.2021 19:00:00 3,7 1,9 - 15 8 - - N 0 0,0
14.01.2021 18:00:00 4,7 3,3 - 9 5 - - NNE 0 0,0
14.01.2021 17:00:00 5,6 3,6 - 11 6 - - NNE 0 0,0
14.01.2021 16:00:00 6,5 4,0 - 13 7 - - NNE 0 0,0
14.01.2021 15:00:00 8,1 4,5 - 15 8 - - N 0 0,0
14.01.2021 14:00:00 9,0 4,8 - 11 6 - - N 0 0,0
14.01.2021 13:00:00 9,5 4,5 - 13 7 - - N 0 0,0
14.01.2021 12:00:00 10,2 6,6 - 16 9 - - WNW 0 0,0
14.01.2021 11:00:00 10,0 6,9 - 16 9 - - W 0 0,0
14.01.2021 10:00:00 10,3 7,2 - 16 9 - - W 0 0,0
14.01.2021 09:00:00 10,6 7,6 6,7 15 8 - - WNW 0 0,0
14.01.2021 08:00:00 10,3 8,0 - 11 6 - - W 0 0,0
14.01.2021 07:00:00 9,9 8,5 - 11 6 - - SW 0 0,0
14.01.2021 06:00:00 10,1 8,5 - 13 7 - - SW 0 0,0
14.01.2021 05:00:00 10,1 8,5 - 11 6 - - SW 0 0,0
14.01.2021 04:00:00 10,3 8,6 - 15 8 - - SSW 0 0,0
14.01.2021 03:00:00 10,1 8,5 - 11 6 - - SSW 0 0,0
14.01.2021 02:00:00 10,0 8,0 - 9 5 - - SW 0 0,0
14.01.2021 01:00:00 11,0 8,1 - 15 8 - - WSW 0 0,0
14.01.2021 00:00:00 10,9 8,2 - 15 8 - - SW - 0,0
13.01.2021 23:00:00 10,8 8,2 - 16 9 - - WSW 0 0,0
13.01.2021 22:00:00 10,6 8,0 - 13 7 - - SW 0 0,0
13.01.2021 21:00:00 10,6 7,9 - 15 8 - - SW 0 0,0
13.01.2021 20:00:00 10,5 8,2 - 11 6 - - WSW 0 0,0
13.01.2021 19:00:00 10,1 8,3 - 9 5 - - SW 0 0,0
13.01.2021 18:00:00 10,1 8,1 - 15 8 - - WSW 0 0,0
13.01.2021 17:00:00 10,2 8,2 - 9 5 - - W 0 0,0
13.01.2021 16:00:00 11,0 8,3 - 15 8 - - WSW 0 0,0
13.01.2021 15:00:00 11,2 8,7 - 15 8 - - WSW 0 0,0
13.01.2021 14:00:00 11,5 8,6 - 9 5 - - WSW 0 0,0
13.01.2021 13:00:00 11,7 9,0 - 15 8 - - W 0 0,0
13.01.2021 12:00:00 10,9 9,2 - 11 6 - - WSW 0 0,0
13.01.2021 11:00:00 10,4 8,9 - 9 5 - - WSW 0 0,0
13.01.2021 10:00:00 8,8 8,2 - 9 5 - - SW 0 0,4
13.01.2021 09:00:00 7,9 7,5 5,7 5 3 - - WSW 0 1,0
13.01.2021 08:00:00 7,5 6,6 - 8 4 - - WSW 0 0,0
13.01.2021 07:00:00 7,2 6,3 - 8 4 - - SW 0 0,0
13.01.2021 06:00:00 6,7 5,9 - 8 4 - - SW 0 0,2
13.01.2021 05:00:00 6,2 5,4 - 9 5 - - SW 0 0,0
13.01.2021 04:00:00 5,8 4,8 - 8 4 - - SW 0 0,0
13.01.2021 03:00:00 5,4 4,1 - 9 5 - - SW 0 0,0
13.01.2021 02:00:00 5,0 3,5 - 8 4 - - SW 0 0,0
13.01.2021 01:00:00 4,1 2,8 - 4 2 - - SW 0 0,2
13.01.2021 00:00:00 3,7 1,9 - 2 1 - - SW - 0,0
12.01.2021 23:00:00 3,7 1,8 - 2 1 - - ESE 0 0,0
12.01.2021 22:00:00 3,5 1,0 - 0 0 - - N 0 0,0
12.01.2021 21:00:00 3,8 0,6 - 2 1 - - S 0 0,0
12.01.2021 20:00:00 4,4 0,2 - 4 2 - - E 0 0,0
12.01.2021 19:00:00 5,0 1,1 - 4 2 - - ENE 0 0,0
12.01.2021 18:00:00 5,4 1,8 - 4 2 - - NNW 0 0,0
12.01.2021 17:00:00 5,7 3,4 - 5 3 - - NNE 0 0,0
12.01.2021 16:00:00 6,2 3,1 - 4 2 - - N 0 0,0
12.01.2021 15:00:00 6,6 3,7 - 5 3 - - N 0 0,0
12.01.2021 14:00:00 6,5 4,7 - 4 2 - - NNW 0 0,0
12.01.2021 13:00:00 6,8 5,4 - 9 5 - - NNE 0 0,0
12.01.2021 12:00:00 7,9 6,9 - 5 3 - - NNE 0 0,4
12.01.2021 11:00:00 8,5 7,5 - 4 2 - - NNW 0 0,2
12.01.2021 10:00:00 8,5 7,3 - 5 3 - - WSW 0 0,2
12.01.2021 09:00:00 8,8 7,0 5,2 4 2 - - W 0 0,2
12.01.2021 08:00:00 9,5 7,0 - 9 5 - - W 0 0,0
12.01.2021 07:00:00 9,5 8,0 - 15 8 - - NW 0 0,4
12.01.2021 06:00:00 10,0 7,8 - 11 6 - - W 0 0,0
12.01.2021 05:00:00 10,4 7,7 - 18 10 - - W 0 0,0
12.01.2021 04:00:00 10,4 7,6 - 21 11 - - W 0 0,2
12.01.2021 03:00:00 9,6 7,5 - 15 8 - - WSW 0 0,0
12.01.2021 02:00:00 9,5 7,3 - 18 10 - - WSW 0 0,0
12.01.2021 01:00:00 9,9 7,2 - 22 12 - - WSW 0 0,0
12.01.2021 00:00:00 9,6 7,3 - 21 11 - - SW - 0,0
11.01.2021 23:00:00 9,3 7,7 - 22 12 - - SW 0 0,2
11.01.2021 22:00:00 8,8 7,7 - 18 10 - - SW 0 0,0
11.01.2021 21:00:00 8,4 7,4 - 22 12 - - SW 0 0,0

tt = temperature
td = dewpoint
tt -20cm = temperature -20cm
ff = wind speed
fx = gusts
dd = wind direction
sd = sunshine duration
rr = precipitation

Next stations